createdAt,value
2022-10-19T00:01:29.636Z,103005.34
2022-10-19T00:03:56.043Z,103009.66
2022-10-19T00:06:26.338Z,103015.16
2022-10-19T00:08:54.817Z,103013.56
2022-10-19T00:11:21.750Z,103011.03
2022-10-19T00:13:48.130Z,103010.28
2022-10-19T00:16:16.414Z,103011.34
2022-10-19T00:18:44.834Z,103004.94
2022-10-19T00:21:15.318Z,103002.34
2022-10-19T00:23:42.318Z,103007.06
2022-10-19T00:26:08.858Z,103002.75
2022-10-19T00:28:35.933Z,102995.75
2022-10-19T00:31:05.322Z,102993.94
2022-10-19T00:33:31.989Z,102988.81
2022-10-19T00:35:58.369Z,102985.44
2022-10-19T00:38:25.008Z,102985.69
2022-10-19T00:40:51.516Z,102989.41
2022-10-19T00:43:20.997Z,102981.47
2022-10-19T00:45:47.721Z,102981.38
2022-10-19T00:48:19.065Z,102973.22
2022-10-19T00:50:46.882Z,102980.06
2022-10-19T00:53:13.353Z,102977.19
2022-10-19T00:55:41.000Z,102984.06
2022-10-19T00:58:08.007Z,102979.22
2022-10-19T01:00:34.593Z,102980.75
2022-10-19T01:03:02.756Z,102986.13
2022-10-19T01:05:30.755Z,102985.28
2022-10-19T01:07:57.411Z,103002.53
2022-10-19T01:10:44.771Z,102991.97
2022-10-19T01:13:25.313Z,102985.03
2022-10-19T01:16:02.510Z,102989.78
2022-10-19T01:18:45.902Z,102984.78
2022-10-19T01:21:20.201Z,102978.53
2022-10-19T01:24:01.598Z,102982.31
2022-10-19T01:27:06.218Z,102982.59
2022-10-19T01:30:02.742Z,102981.44
2022-10-19T01:32:44.218Z,102980.28
2022-10-19T01:35:28.629Z,102973.59
2022-10-19T01:38:40.851Z,102974.06
2022-10-19T01:41:16.695Z,102978.03
2022-10-19T01:43:50.854Z,102973.81
2022-10-19T01:46:29.120Z,102975.81
2022-10-19T01:49:02.398Z,102977.88
2022-10-19T01:51:40.248Z,102977.16
2022-10-19T01:54:11.924Z,102978.16
2022-10-19T01:56:42.185Z,102975.59
2022-10-19T01:59:10.735Z,102973.00
2022-10-19T02:01:41.379Z,102969.56
2022-10-19T02:04:08.748Z,102969.72
2022-10-19T02:06:35.619Z,102966.38
2022-10-19T02:09:02.051Z,102970.06
2022-10-19T02:11:30.665Z,102959.44
2022-10-19T02:14:04.134Z,102965.84
2022-10-19T02:16:40.876Z,102961.47
2022-10-19T02:19:08.713Z,102955.28
2022-10-19T02:21:35.134Z,102950.00
2022-10-19T02:24:01.463Z,102950.06
2022-10-19T02:26:28.087Z,102951.72
2022-10-19T02:28:56.369Z,102968.78
2022-10-19T02:31:23.549Z,102965.22
2022-10-19T02:33:49.972Z,102965.22
2022-10-19T02:36:17.320Z,102958.94
2022-10-19T02:38:43.942Z,102958.06
2022-10-19T02:41:34.530Z,102956.28
2022-10-19T02:44:05.412Z,102953.66
2022-10-19T02:49:13.207Z,102944.72
2022-10-19T02:51:55.525Z,102947.41
2022-10-19T02:54:21.903Z,102949.31
2022-10-19T02:56:48.241Z,102942.97
2022-10-19T02:59:14.590Z,102942.91
2022-10-19T03:01:40.958Z,102930.34
2022-10-19T03:04:07.295Z,102938.41
2022-10-19T03:06:33.797Z,102933.03
2022-10-19T03:09:00.416Z,102944.50
2022-10-19T03:11:26.822Z,102938.91
2022-10-19T03:13:53.231Z,102944.16
2022-10-19T03:16:19.736Z,102948.50
2022-10-19T03:18:48.746Z,102942.19
2022-10-19T03:21:15.177Z,102941.22
2022-10-19T03:23:41.874Z,102929.59
2022-10-19T03:26:12.414Z,102932.22
2022-10-19T03:28:39.052Z,102937.50
2022-10-19T03:31:05.799Z,102932.97
2022-10-19T03:33:32.166Z,102936.56
2022-10-19T03:36:17.714Z,102924.84
2022-10-19T03:38:44.132Z,102926.69
2022-10-19T03:41:10.820Z,102924.00
2022-10-19T03:43:37.275Z,102919.50
2022-10-19T03:46:03.760Z,102922.09
2022-10-19T03:48:30.189Z,102924.72
2022-10-19T03:51:07.654Z,102921.03
2022-10-19T03:53:34.657Z,102924.63
2022-10-19T03:56:03.082Z,102916.53
2022-10-19T03:58:30.973Z,102920.16
2022-10-19T04:00:57.416Z,102912.13
2022-10-19T04:03:23.874Z,102906.84
2022-10-19T04:05:50.314Z,102914.09
2022-10-19T04:08:16.696Z,102910.53
2022-10-19T04:10:43.137Z,102912.25
2022-10-19T04:13:09.544Z,102903.22
2022-10-19T04:15:35.918Z,102903.94
2022-10-19T04:18:02.433Z,102909.06
2022-10-19T04:20:28.761Z,102910.75
2022-10-19T04:22:55.136Z,102918.59
2022-10-19T04:25:21.658Z,102912.00
2022-10-19T04:27:48.024Z,102921.72
2022-10-19T04:30:14.397Z,102922.53
2022-10-19T04:32:40.776Z,102918.91
2022-10-19T04:35:07.715Z,102915.28
2022-10-19T04:37:34.345Z,102914.44
2022-10-19T04:40:00.972Z,102914.41
2022-10-19T04:42:27.302Z,102910.78
2022-10-19T04:44:53.662Z,102915.44
2022-10-19T04:47:20.065Z,102911.09
2022-10-19T04:49:46.432Z,102918.38
2022-10-19T04:52:12.789Z,102916.47
2022-10-19T04:54:39.146Z,102902.06
2022-10-19T04:57:05.530Z,102909.25
2022-10-19T04:59:32.149Z,102902.03
2022-10-19T05:01:58.501Z,102908.25
2022-10-19T05:04:24.896Z,102910.78
2022-10-19T05:06:51.282Z,102899.88
2022-10-19T05:09:17.651Z,102906.09
2022-10-19T05:11:44.032Z,102898.94
2022-10-19T05:14:10.566Z,102902.47
2022-10-19T05:16:37.002Z,102901.41
2022-10-19T05:19:03.606Z,102897.84
2022-10-19T05:21:30.030Z,102898.66
2022-10-19T05:23:57.391Z,102904.78
2022-10-19T05:26:26.604Z,102904.91
2022-10-19T05:28:59.272Z,102905.94
2022-10-19T05:31:31.188Z,102903.41
2022-10-19T05:33:58.851Z,102911.56
2022-10-19T05:36:34.410Z,102920.41
2022-10-19T05:39:22.411Z,102916.84
2022-10-19T05:41:49.144Z,102913.22
2022-10-19T05:44:21.150Z,102918.63
2022-10-19T05:46:48.724Z,102910.53
2022-10-19T05:49:17.342Z,102905.94
2022-10-19T05:51:43.786Z,102905.03
2022-10-19T05:54:11.465Z,102904.19
2022-10-19T05:56:39.202Z,102911.47
2022-10-19T05:59:07.094Z,102913.13
2022-10-19T06:01:34.378Z,102915.84
2022-10-19T06:04:02.324Z,102914.97
2022-10-19T06:06:28.973Z,102920.47
2022-10-19T06:08:56.820Z,102910.47
2022-10-19T06:11:26.345Z,102914.94
2022-10-19T06:13:55.446Z,102927.44
2022-10-19T06:16:23.947Z,102924.72
2022-10-19T06:18:50.671Z,102927.28
2022-10-19T06:21:19.671Z,102920.06
2022-10-19T06:24:03.854Z,102927.16
2022-10-19T06:26:32.566Z,102923.41
2022-10-19T06:29:00.991Z,102928.69
2022-10-19T06:31:28.817Z,102930.25
2022-10-19T06:33:56.097Z,102935.59
2022-10-19T06:36:25.348Z,102929.19
2022-10-19T06:38:53.142Z,102929.03
2022-10-19T06:41:20.713Z,102924.16
2022-10-19T06:43:51.839Z,102931.75
2022-10-19T06:46:20.397Z,102922.59
2022-10-19T06:49:04.829Z,102916.91
2022-10-19T06:51:33.910Z,102904.94
2022-10-19T06:54:00.283Z,102908.22
2022-10-19T06:56:26.865Z,102905.31
2022-10-19T06:58:54.267Z,102913.28
2022-10-19T07:01:21.624Z,102908.50
2022-10-19T07:03:48.064Z,102907.50
2022-10-19T07:06:14.597Z,102904.66
2022-10-19T07:08:42.352Z,102902.81
2022-10-19T07:11:12.049Z,102892.56
2022-10-19T07:13:38.827Z,102897.69
2022-10-19T07:16:15.796Z,102891.19
2022-10-19T07:18:46.462Z,102891.63
2022-10-19T07:21:14.990Z,102889.50
2022-10-19T07:23:44.132Z,102891.03
2022-10-19T07:26:30.444Z,102888.38
2022-10-19T07:28:57.605Z,102879.44
2022-10-19T07:31:25.471Z,102877.66
2022-10-19T07:33:59.424Z,102884.56
2022-10-19T07:36:27.469Z,102882.72
2022-10-19T07:38:53.916Z,102890.84
2022-10-19T07:41:22.143Z,102899.94
2022-10-19T07:43:49.424Z,102898.03
2022-10-19T07:46:18.443Z,102897.72
2022-10-19T07:48:45.550Z,102900.13
2022-10-19T07:51:13.794Z,102916.22
2022-10-19T07:53:40.673Z,102917.00
2022-10-19T07:56:09.819Z,102915.97
2022-10-19T07:58:36.661Z,102913.84
2022-10-19T08:01:05.688Z,102913.41
2022-10-19T08:06:20.576Z,102906.38
2022-10-19T08:08:47.923Z,102903.28
2022-10-19T08:11:26.703Z,102901.09
2022-10-19T08:13:53.694Z,102896.63
2022-10-19T08:16:28.108Z,102900.03
2022-10-19T08:18:58.756Z,102898.44
2022-10-19T08:21:26.971Z,102898.88
2022-10-19T08:23:53.377Z,102904.03
2022-10-19T08:26:20.391Z,102914.06
2022-10-19T08:28:47.144Z,102905.25
2022-10-19T08:31:16.522Z,102899.19
2022-10-19T08:33:43.203Z,102902.91
2022-10-19T08:36:11.466Z,102904.63
2022-10-19T08:38:38.463Z,102901.63
2022-10-19T08:41:29.370Z,102897.84
2022-10-19T08:44:04.027Z,102897.44
2022-10-19T08:46:56.026Z,102891.38
2022-10-19T08:49:25.708Z,102895.00
2022-10-19T08:52:00.485Z,102891.53
2022-10-19T08:54:54.321Z,102884.69
2022-10-19T08:57:32.970Z,102887.66
2022-10-19T09:00:24.826Z,102880.66
2022-10-19T09:02:57.176Z,102885.31
2022-10-19T09:05:39.189Z,102873.34
2022-10-19T09:08:08.277Z,102872.75
2022-10-19T09:10:40.892Z,102881.16
2022-10-19T09:13:16.309Z,102864.94
2022-10-19T09:15:45.984Z,102865.97
2022-10-19T09:18:19.548Z,102866.44
2022-10-19T09:20:49.137Z,102860.03
2022-10-19T09:23:26.293Z,102863.56
2022-10-19T09:25:53.527Z,102855.94
2022-10-19T09:28:45.001Z,102858.66
2022-10-19T09:31:42.690Z,102851.31
2022-10-19T09:34:32.833Z,102854.31
2022-10-19T09:37:00.269Z,102855.19
2022-10-19T09:39:30.623Z,102851.66
2022-10-19T09:42:07.968Z,102843.72
2022-10-19T09:44:34.730Z,102842.78
2022-10-19T09:47:26.126Z,102841.78
2022-10-19T09:50:08.357Z,102838.97
2022-10-19T09:52:36.434Z,102838.47
2022-10-19T09:55:06.062Z,102831.31
2022-10-19T09:57:32.951Z,102819.72
2022-10-19T09:59:59.552Z,102838.16
2022-10-19T10:02:32.131Z,102839.78
2022-10-19T10:05:15.066Z,102845.31
2022-10-19T10:07:41.980Z,102850.47
2022-10-19T10:10:30.645Z,102836.25
2022-10-19T10:13:00.850Z,102842.88
2022-10-19T10:15:35.443Z,102834.28
2022-10-19T10:18:02.950Z,102818.03
2022-10-19T10:20:32.469Z,102822.56
2022-10-19T10:23:01.739Z,102814.59
2022-10-19T10:25:33.700Z,102819.81
2022-10-19T10:28:18.615Z,102818.50
2022-10-19T10:30:46.897Z,102822.97
2022-10-19T10:33:33.315Z,102821.94
2022-10-19T10:36:09.726Z,102824.25
2022-10-19T10:38:41.426Z,102817.31
2022-10-19T10:41:14.731Z,102824.06
2022-10-19T10:43:56.006Z,102824.78
2022-10-19T10:46:32.722Z,102807.13
2022-10-19T10:49:02.949Z,102806.00
2022-10-19T10:51:43.632Z,102805.75
2022-10-19T10:54:19.015Z,102808.53
2022-10-19T10:57:06.256Z,102797.38
2022-10-19T10:59:43.118Z,102794.75
2022-10-19T11:05:02.744Z,102790.16
2022-10-19T11:07:32.604Z,102781.47
2022-10-19T11:10:06.724Z,102781.19
2022-10-19T11:12:41.683Z,102775.34
2022-10-19T11:18:09.975Z,102769.09
2022-10-19T11:20:43.378Z,102744.66
2022-10-19T11:23:51.781Z,102736.50
2022-10-19T11:26:35.172Z,102720.56
2022-10-19T11:29:04.613Z,102720.22
2022-10-19T11:31:37.100Z,102721.34
2022-10-19T11:34:23.626Z,102702.69
2022-10-19T11:37:30.965Z,102704.16
2022-10-19T11:40:23.064Z,102700.66
2022-10-19T11:43:02.658Z,102694.19
2022-10-19T11:45:31.941Z,102690.81
2022-10-19T11:48:20.738Z,102679.19
2022-10-19T11:51:16.812Z,102678.78
2022-10-19T11:54:14.607Z,102670.25
2022-10-19T11:57:06.356Z,102655.25
2022-10-19T11:59:47.829Z,102646.84
2022-10-19T12:02:41.671Z,102642.09
2022-10-19T12:05:32.840Z,102650.78
2022-10-19T12:08:31.687Z,102643.69
2022-10-19T12:11:09.867Z,102635.19
2022-10-19T12:13:49.142Z,102640.84
2022-10-19T12:16:17.242Z,102628.47
2022-10-19T12:18:48.936Z,102625.72
2022-10-19T12:21:39.850Z,102606.47
2022-10-19T12:24:24.415Z,102607.09
2022-10-19T12:26:53.704Z,102612.53
2022-10-19T12:29:26.645Z,102605.16
2022-10-19T12:31:55.258Z,102599.00
2022-10-19T12:34:53.971Z,102588.06
2022-10-19T12:37:38.530Z,102583.38
2022-10-19T12:40:05.021Z,102576.16
2022-10-19T12:42:59.439Z,102572.13
2022-10-19T12:45:33.819Z,102548.59
2022-10-19T12:48:11.020Z,102556.88
2022-10-19T12:50:49.213Z,102557.66
2022-10-19T12:53:38.108Z,102563.50
2022-10-19T12:56:24.068Z,102560.81
2022-10-19T12:58:57.369Z,102561.88
2022-10-19T13:01:35.751Z,102564.25
2022-10-19T13:04:22.689Z,102553.63
2022-10-19T13:06:59.114Z,102545.41
2022-10-19T13:09:35.248Z,102545.53
2022-10-19T13:12:17.672Z,102547.91
2022-10-19T13:14:55.476Z,102533.63
2022-10-19T13:17:34.346Z,102527.09
2022-10-19T13:20:13.136Z,102526.88
2022-10-19T13:22:40.079Z,102527.72
2022-10-19T13:25:21.824Z,102529.94
2022-10-19T13:27:52.447Z,102528.69
2022-10-19T13:30:41.737Z,102525.38
2022-10-19T13:33:30.129Z,102515.50
2022-10-19T13:35:59.478Z,102522.84
2022-10-19T13:38:45.586Z,102525.41
2022-10-19T13:41:25.707Z,102519.06
2022-10-19T13:43:57.810Z,102511.72
2022-10-19T13:46:30.192Z,102504.69
2022-10-19T13:49:27.745Z,102503.91
2022-10-19T13:52:11.727Z,102498.53
2022-10-19T13:54:49.337Z,102506.31
2022-10-19T13:57:50.065Z,102506.94
2022-10-19T14:00:22.286Z,102498.47
2022-10-19T14:03:05.465Z,102502.97
2022-10-19T14:06:06.452Z,102501.66
2022-10-19T14:08:42.103Z,102508.03
2022-10-19T14:11:16.371Z,102503.09
2022-10-19T14:13:43.424Z,102508.06
2022-10-19T14:16:20.914Z,102506.66
2022-10-19T14:18:56.667Z,102502.91
2022-10-19T14:21:32.169Z,102504.09
2022-10-19T14:23:59.449Z,102513.56
2022-10-19T14:26:32.354Z,102506.97
2022-10-19T14:28:59.893Z,102510.75
2022-10-19T14:31:34.044Z,102510.19
2022-10-19T14:34:04.310Z,102506.13
2022-10-19T14:36:36.010Z,102503.03
2022-10-19T14:39:02.581Z,102503.00
2022-10-19T14:44:43.395Z,102486.69
2022-10-19T14:47:23.933Z,102472.56
2022-10-19T14:49:50.792Z,102471.31
2022-10-19T14:52:22.294Z,102459.72
2022-10-19T14:54:54.170Z,102466.13
2022-10-19T14:57:27.345Z,102453.69
2022-10-19T15:00:03.145Z,102460.78
2022-10-19T15:02:38.609Z,102457.94
2022-10-19T15:05:14.933Z,102459.81
2022-10-19T15:07:43.231Z,102461.72
2022-10-19T15:10:18.594Z,102456.41
2022-10-19T15:12:45.738Z,102447.88
2022-10-19T15:15:25.337Z,102446.25
2022-10-19T15:17:56.143Z,102441.84
2022-10-19T15:20:39.659Z,102441.03
2022-10-19T15:23:34.414Z,102429.91
2022-10-19T15:26:17.271Z,102428.50
2022-10-19T15:28:44.414Z,102424.25
2022-10-19T15:31:17.075Z,102419.22
2022-10-19T15:33:47.752Z,102415.78
2022-10-19T15:36:17.370Z,102416.06
2022-10-19T15:38:45.662Z,102406.38
2022-10-19T15:41:18.800Z,102402.09
2022-10-19T15:43:50.880Z,102395.22
2022-10-19T15:46:32.285Z,102400.75
2022-10-19T15:49:23.697Z,102394.00
2022-10-19T15:51:50.547Z,102394.47
2022-10-19T15:54:19.005Z,102376.81
2022-10-19T15:56:50.417Z,102381.59
2022-10-19T15:59:19.995Z,102363.81
2022-10-19T16:01:51.378Z,102362.25
2022-10-19T16:04:20.197Z,102357.97
2022-10-19T16:06:46.862Z,102361.00
2022-10-19T16:09:19.347Z,102349.47
2022-10-19T16:11:46.103Z,102346.88
2022-10-19T16:14:12.977Z,102348.97
2022-10-19T16:16:39.702Z,102349.09
2022-10-19T16:19:06.189Z,102352.56
2022-10-19T16:21:35.544Z,102353.63
2022-10-19T16:24:01.964Z,102352.06
2022-10-19T16:26:29.182Z,102350.41
2022-10-19T16:28:56.585Z,102354.09
2022-10-19T16:31:24.034Z,102351.63
2022-10-19T16:33:50.735Z,102344.50
2022-10-19T16:36:20.145Z,102352.56
2022-10-19T16:38:47.731Z,102352.81
2022-10-19T16:41:14.636Z,102354.59
2022-10-19T16:43:41.148Z,102351.13
2022-10-19T16:46:07.677Z,102344.91
2022-10-19T16:48:34.203Z,102344.94
2022-10-19T16:51:12.502Z,102343.38
2022-10-19T16:53:38.894Z,102332.56
2022-10-19T16:56:10.777Z,102325.34
2022-10-19T16:58:37.275Z,102323.66
2022-10-19T17:01:08.401Z,102321.16
2022-10-19T17:03:35.315Z,102312.28
2022-10-19T17:06:03.621Z,102317.78
2022-10-19T17:08:37.322Z,102316.91
2022-10-19T17:11:22.448Z,102313.16
2022-10-19T17:13:51.266Z,102300.66
2022-10-19T17:16:19.444Z,102295.22
2022-10-19T17:18:46.734Z,102284.31
2022-10-19T17:21:19.046Z,102282.63
2022-10-19T17:23:46.113Z,102284.53
2022-10-19T17:26:13.242Z,102290.13
2022-10-19T17:28:40.113Z,102281.97
2022-10-19T17:31:09.130Z,102276.31
2022-10-19T17:33:36.509Z,102279.13
2022-10-19T17:36:14.745Z,102290.72
2022-10-19T17:38:41.970Z,102292.63
2022-10-19T17:41:11.622Z,102292.31
2022-10-19T17:43:39.655Z,102291.59
2022-10-19T17:46:08.397Z,102284.56
2022-10-19T17:48:36.318Z,102289.09
2022-10-19T17:51:10.432Z,102287.53
2022-10-19T17:53:36.804Z,102286.59
2022-10-19T17:56:06.582Z,102286.59
2022-10-19T17:58:36.416Z,102281.25
2022-10-19T18:01:07.392Z,102282.06
2022-10-19T18:03:35.363Z,102278.66
2022-10-19T18:06:11.969Z,102284.19
2022-10-19T18:08:41.238Z,102287.81
2022-10-19T18:11:08.986Z,102288.88
2022-10-19T18:16:10.779Z,102300.97
2022-10-19T18:18:38.545Z,102295.81
2022-10-19T18:21:07.161Z,102297.53
2022-10-19T18:23:33.675Z,102302.09
2022-10-19T18:26:19.696Z,102305.84
2022-10-19T18:28:46.531Z,102316.34
2022-10-19T18:31:21.333Z,102318.13
2022-10-19T18:33:54.203Z,102320.91
2022-10-19T18:36:20.897Z,102315.66
2022-10-19T18:38:55.301Z,102296.78
2022-10-19T18:41:22.059Z,102287.09
2022-10-19T18:44:04.341Z,102283.66
2022-10-19T18:46:32.483Z,102272.38
2022-10-19T18:49:04.010Z,102267.19
2022-10-19T18:51:31.826Z,102260.97
2022-10-19T18:53:59.033Z,102258.38
2022-10-19T18:56:26.272Z,102257.44
2022-10-19T18:58:52.686Z,102252.09
2022-10-19T19:01:26.434Z,102233.41
2022-10-19T19:03:55.489Z,102239.84
2022-10-19T19:06:29.266Z,102245.28
2022-10-19T19:08:57.671Z,102246.41
2022-10-19T19:11:27.014Z,102248.16
2022-10-19T19:13:55.988Z,102229.03
2022-10-19T19:16:24.248Z,102224.59
2022-10-19T19:18:51.433Z,102225.66
2022-10-19T19:21:20.788Z,102214.03
2022-10-19T19:23:48.149Z,102213.34
2022-10-19T19:26:16.963Z,102210.53
2022-10-19T19:28:45.269Z,102209.66
2022-10-19T19:31:17.028Z,102207.00
2022-10-19T19:33:44.814Z,102205.13
2022-10-19T19:36:13.929Z,102189.91
2022-10-19T19:38:41.126Z,102177.53
2022-10-19T19:41:09.156Z,102168.69
2022-10-19T19:43:37.545Z,102159.78
2022-10-19T19:46:09.381Z,102156.22
2022-10-19T19:48:36.743Z,102158.97
2022-10-19T19:51:03.538Z,102156.41
2022-10-19T19:53:29.973Z,102156.41
2022-10-19T19:55:56.337Z,102137.41
2022-10-19T19:58:22.674Z,102133.09
2022-10-19T20:00:49.073Z,102142.78
2022-10-19T20:03:16.244Z,102127.66
2022-10-19T20:05:42.673Z,102125.06
2022-10-19T20:08:09.472Z,102110.53
2022-10-19T20:10:40.851Z,102119.84
2022-10-19T20:13:07.807Z,102118.78
2022-10-19T20:15:37.623Z,102117.19
2022-10-19T20:18:04.212Z,102112.63
2022-10-19T20:20:30.654Z,102115.38
2022-10-19T20:22:57.392Z,102106.59
2022-10-19T20:25:23.741Z,102105.66
2022-10-19T20:27:50.103Z,102104.78
2022-10-19T20:30:16.518Z,102110.00
2022-10-19T20:32:42.871Z,102112.75
2022-10-19T20:35:09.480Z,102089.09
2022-10-19T20:37:35.858Z,102088.34
2022-10-19T20:40:07.438Z,102080.53
2022-10-19T20:42:35.381Z,102075.16
2022-10-19T20:45:01.916Z,102062.72
2022-10-19T20:47:28.258Z,102069.28
2022-10-19T20:49:54.736Z,102075.38
2022-10-19T20:52:21.184Z,102062.72
2022-10-19T20:54:48.388Z,102052.06
2022-10-19T20:57:15.081Z,102051.97
2022-10-19T20:59:43.692Z,102050.94
2022-10-19T21:02:10.748Z,102055.72
2022-10-19T21:04:37.310Z,102050.41
2022-10-19T21:07:04.880Z,102055.81
2022-10-19T21:09:31.441Z,102062.00
2022-10-19T21:11:58.089Z,102053.13
2022-10-19T21:14:28.433Z,102052.28
2022-10-19T21:16:59.741Z,102043.56
2022-10-19T21:19:27.969Z,102043.69
2022-10-19T21:21:57.840Z,102042.75
2022-10-19T21:24:28.095Z,102053.44
2022-10-19T21:26:54.561Z,102041.75
2022-10-19T21:29:21.367Z,102041.06
2022-10-19T21:31:50.134Z,102039.78
2022-10-19T21:34:22.557Z,102045.22
2022-10-19T21:36:49.234Z,102030.16
2022-10-19T21:39:15.823Z,102032.56
2022-10-19T21:41:42.209Z,102034.63
2022-10-19T21:44:08.861Z,102036.59
2022-10-19T21:46:35.261Z,102024.91
2022-10-19T21:49:01.633Z,102033.91
2022-10-19T21:51:35.294Z,102023.09
2022-10-19T21:54:03.433Z,102021.41
2022-10-19T21:56:29.936Z,102015.06
2022-10-19T21:58:56.735Z,102022.22
2022-10-19T22:01:26.487Z,102023.28
2022-10-19T22:04:00.190Z,102022.66
2022-10-19T22:06:28.554Z,102018.16
2022-10-19T22:08:55.871Z,102019.03
2022-10-19T22:11:23.546Z,102013.88
2022-10-19T22:13:53.705Z,102014.97
2022-10-19T22:16:20.901Z,102019.50
2022-10-19T22:18:48.198Z,102026.75
2022-10-19T22:21:17.757Z,102025.09
2022-10-19T22:23:45.121Z,102020.75
2022-10-19T22:26:21.249Z,102017.13
2022-10-19T22:28:47.782Z,102010.91
2022-10-19T22:31:14.170Z,102006.75
2022-10-19T22:33:40.546Z,101997.91
2022-10-19T22:36:08.467Z,101993.53
2022-10-19T22:38:35.279Z,101986.19
2022-10-19T22:41:58.231Z,101987.97
2022-10-19T22:44:24.603Z,101979.84
2022-10-19T22:46:50.957Z,101985.28
2022-10-19T22:49:17.328Z,101980.94
2022-10-19T22:51:43.722Z,101984.56
2022-10-19T22:54:10.354Z,101975.56
2022-10-19T22:56:36.878Z,101978.34
2022-10-19T22:59:06.430Z,101982.69
2022-10-19T23:01:33.474Z,101973.06
2022-10-19T23:04:00.088Z,101964.97
2022-10-19T23:06:26.583Z,101960.34
2022-10-19T23:08:53.847Z,101960.59
2022-10-19T23:11:20.871Z,101959.97
2022-10-19T23:13:47.461Z,101943.88
2022-10-19T23:16:14.018Z,101950.19
2022-10-19T23:18:41.303Z,101945.69
2022-10-19T23:21:11.025Z,101938.56
2022-10-19T23:23:37.501Z,101931.59
2022-10-19T23:26:05.538Z,101915.47
2022-10-19T23:28:33.633Z,101908.31
2022-10-19T23:31:05.333Z,101901.19
2022-10-19T23:33:32.101Z,101898.50
2022-10-19T23:36:28.963Z,101893.84
2022-10-19T23:38:56.849Z,101885.91
2022-10-19T23:41:23.680Z,101883.09
2022-10-19T23:43:50.393Z,101869.75
2022-10-19T23:46:16.872Z,101874.16
2022-10-19T23:48:43.480Z,101869.56
2022-10-19T23:51:14.513Z,101868.78
2022-10-19T23:53:43.221Z,101871.38
2022-10-19T23:56:16.798Z,101866.31
2022-10-19T23:58:43.802Z,101858.44
